Time;durP1;ratioP1;P1;durP2;ratioP2;P2;SDS_P1;SDS_P2;PMS_P1;PMS_P2;Temp;Humidity;BMP_temperature;BMP_pressure;BME280_temperature;BME280_humidity;BME280_pressure;Samples;Min_cycle;Max_cycle;Signal;HPM_P1;HPM_P2
2023/12/04 00:01:21;;;;;;;22.83;14.17;;;;;;;-1.77;88.81;100724.28;5115657;27;20200;-64
2023/12/04 00:03:48;;;;;;;28.03;15.37;;;;;;;-1.78;88.55;100723.41;5123084;28;20211;-63
2023/12/04 00:06:17;;;;;;;24.90;14.73;;;;;;;-1.79;88.79;100719.16;5113426;27;20207;-64
2023/12/04 00:08:46;;;;;;;27.00;16.17;;;;;;;-1.76;89.33;100721.84;5119706;27;20252;-62
2023/12/04 00:11:14;;;;;;;24.73;15.00;;;;;;;-1.75;89.10;100716.00;5102916;28;20642;-63
2023/12/04 00:13:42;;;;;;;25.20;14.93;;;;;;;-1.74;89.12;100719.38;5103821;28;20272;-64
2023/12/04 00:16:10;;;;;;;20.23;13.83;;;;;;;-1.68;89.15;100734.84;5117405;28;20234;-65
2023/12/04 00:18:38;;;;;;;24.00;14.43;;;;;;;-1.74;89.20;100734.53;5099196;28;20196;-64
2023/12/04 00:21:07;;;;;;;25.07;15.07;;;;;;;-1.73;89.68;100726.16;5114081;28;20557;-63
2023/12/04 00:23:35;;;;;;;28.77;15.87;;;;;;;-1.74;90.02;100729.50;5111089;28;20208;-63
2023/12/04 00:26:04;;;;;;;25.60;15.07;;;;;;;-1.72;89.59;100732.97;5114158;28;20232;-63
2023/12/04 00:28:33;;;;;;;24.80;15.17;;;;;;;-1.74;90.01;100732.03;5128503;28;20674;-63
2023/12/04 00:31:01;;;;;;;23.97;15.10;;;;;;;-1.67;89.99;100735.72;5113108;28;20594;-69
2023/12/04 00:33:29;;;;;;;23.77;15.20;;;;;;;-1.68;89.76;100734.84;5112302;28;20643;-62
2023/12/04 00:35:59;;;;;;;25.20;15.27;;;;;;;-1.65;89.83;100737.53;5113990;27;20235;-62
2023/12/04 00:38:27;;;;;;;23.87;15.23;;;;;;;-1.62;89.52;100735.16;5111390;27;20215;-64
2023/12/04 00:40:55;;;;;;;23.43;15.27;;;;;;;-1.61;89.30;100736.03;5125394;27;20733;-62
2023/12/04 00:43:24;;;;;;;25.33;15.30;;;;;;;-1.59;89.49;100740.34;5115463;27;20253;-63
2023/12/04 00:45:52;;;;;;;26.23;15.33;;;;;;;-1.54;89.50;100751.56;5119450;27;20286;-63
2023/12/04 00:48:20;;;;;;;27.67;16.53;;;;;;;-1.51;89.39;100751.69;5110815;27;20197;-63
2023/12/04 00:50:48;;;;;;;24.67;15.27;;;;;;;-1.47;89.23;100756.09;5113049;27;20219;-61
2023/12/04 00:53:16;;;;;;;27.17;15.97;;;;;;;-1.46;88.84;100754.44;5123402;27;20561;-60
2023/12/04 00:55:44;;;;;;;26.97;15.90;;;;;;;-1.48;88.96;100743.38;5104645;28;20292;-60
2023/12/04 00:58:12;;;;;;;27.27;16.23;;;;;;;-1.43;89.08;100753.75;5114398;27;20231;-61
2023/12/04 01:00:41;;;;;;;24.33;14.57;;;;;;;-1.46;88.78;100752.78;5122549;27;20203;-63
2023/12/04 01:03:10;;;;;;;26.73;16.77;;;;;;;-1.44;88.42;100751.97;5115177;27;20214;-62
2023/12/04 01:05:38;;;;;;;24.93;15.20;;;;;;;-1.44;88.41;100749.44;5125226;27;20265;-65
2023/12/04 01:08:05;;;;;;;30.37;17.40;;;;;;;-1.44;88.27;100755.38;5110666;27;20223;-61
2023/12/04 01:10:34;;;;;;;27.47;16.40;;;;;;;-1.47;88.34;100760.31;5108794;27;20220;-63
2023/12/04 01:13:02;;;;;;;23.23;14.93;;;;;;;-1.44;88.33;100762.09;5114996;27;20563;-65
2023/12/04 01:15:30;;;;;;;25.00;15.77;;;;;;;-1.44;88.08;100759.56;5112456;27;20200;-62
2023/12/04 01:18:00;;;;;;;24.10;15.13;;;;;;;-1.42;88.11;100758.00;5104965;27;20244;-62
2023/12/04 01:20:29;;;;;;;22.27;14.30;;;;;;;-1.42;88.23;100753.78;5114013;27;20240;-61
2023/12/04 01:22:57;;;;;;;22.73;15.33;;;;;;;-1.38;88.08;100765.78;5124717;27;20561;-60
2023/12/04 01:25:25;;;;;;;25.03;15.47;;;;;;;-1.38;88.16;100763.25;5114475;27;20650;-62
2023/12/04 01:27:53;;;;;;;23.97;15.07;;;;;;;-1.32;87.98;100760.16;5119501;27;20273;-63
2023/12/04 01:30:21;;;;;;;24.63;15.17;;;;;;;-1.27;87.59;100766.28;5114538;27;20313;-64
2023/12/04 01:32:49;;;;;;;21.10;13.53;;;;;;;-1.27;87.38;100774.75;5113406;28;20253;-63
2023/12/04 01:35:19;;;;;;;24.87;13.73;;;;;;;-1.25;87.48;100775.69;5107808;27;20196;-62
2023/12/04 01:37:46;;;;;;;20.33;13.73;;;;;;;-1.25;87.14;100774.84;5113002;27;20224;-67
2023/12/04 01:40:14;;;;;;;22.00;13.57;;;;;;;-1.24;87.04;100776.56;5116930;27;20658;-66
2023/12/04 01:42:43;;;;;;;23.50;13.77;;;;;;;-1.27;86.80;100771.34;5113009;27;20211;-66
2023/12/04 01:45:11;;;;;;;20.83;13.70;;;;;;;-1.26;86.89;100783.19;5107525;28;20953;-68
2023/12/04 01:47:39;;;;;;;21.57;13.50;;;;;;;-1.26;86.77;100776.47;5126522;27;20301;-66
2023/12/04 01:50:09;;;;;;;20.27;13.37;;;;;;;-1.23;86.59;100770.69;5117876;27;20290;-66
2023/12/04 01:52:38;;;;;;;18.40;12.13;;;;;;;-1.26;86.49;100773.06;5109913;27;20211;-66
2023/12/04 01:55:09;;;;;;;19.67;12.10;;;;;;;-1.25;86.36;100787.47;5112101;27;20253;-66
2023/12/04 01:57:37;;;;;;;20.23;11.70;;;;;;;-1.26;86.20;100789.09;5115239;27;20299;-66
2023/12/04 02:00:11;;;;;;;19.67;12.20;;;;;;;-1.27;85.90;100794.09;5121277;27;20643;-67
2023/12/04 02:02:39;;;;;;;20.40;12.23;;;;;;;-1.31;85.49;100803.19;5107297;27;20762;-66
2023/12/04 02:05:08;;;;;;;19.27;11.37;;;;;;;-1.32;85.65;100815.78;5121302;27;20203;-67
2023/12/04 02:07:38;;;;;;;16.13;10.07;;;;;;;-1.36;85.39;100798.69;5108502;27;20195;-67
2023/12/04 02:10:07;;;;;;;16.00;11.03;;;;;;;-1.43;84.93;100811.88;5101027;27;20626;-66
2023/12/04 02:12:35;;;;;;;14.77;10.57;;;;;;;-1.53;84.75;100811.41;5110215;27;20296;-67
2023/12/04 02:15:04;;;;;;;16.10;9.93;;;;;;;-1.57;84.93;100809.50;5118553;27;20603;-67
2023/12/04 02:17:33;;;;;;;16.60;10.33;;;;;;;-1.61;84.04;100809.28;5112297;27;20292;-66
2023/12/04 02:20:03;;;;;;;17.10;10.07;;;;;;;-1.69;84.56;100803.88;5106071;28;20211;-66
2023/12/04 02:22:31;;;;;;;15.57;9.77;;;;;;;-1.71;84.18;100813.88;5116604;27;20654;-66
2023/12/04 02:25:00;;;;;;;17.10;10.17;;;;;;;-1.73;84.34;100812.06;5121832;27;20203;-66
2023/12/04 02:27:34;;;;;;;16.17;10.50;;;;;;;-1.76;84.03;100806.88;5102094;27;20228;-66
2023/12/04 02:30:03;;;;;;;15.43;9.77;;;;;;;-1.79;83.83;100801.66;5111562;27;20681;-67
2023/12/04 02:32:34;;;;;;;14.47;9.97;;;;;;;-1.81;84.03;100803.22;5112061;27;20740;-65
2023/12/04 02:35:05;;;;;;;14.83;9.23;;;;;;;-1.82;84.11;100812.47;5114642;27;20206;-71
2023/12/04 02:37:35;;;;;;;15.03;9.77;;;;;;;-1.86;83.93;100815.63;5122419;27;20295;-68
2023/12/04 02:40:06;;;;;;;15.60;9.93;;;;;;;-1.90;83.79;100818.81;5112818;27;20316;-66
2023/12/04 02:42:34;;;;;;;16.40;9.40;;;;;;;-1.94;84.29;100816.91;5115344;27;20211;-65
2023/12/04 02:45:02;;;;;;;13.17;8.97;;;;;;;-1.91;83.98;100816.19;5097815;27;20207;-64
2023/12/04 02:47:30;;;;;;;16.00;9.90;;;;;;;-1.91;83.62;100821.22;5104442;28;20248;-67
2023/12/04 02:49:58;;;;;;;13.50;8.80;;;;;;;-1.96;83.11;100814.28;5117698;27;20566;-65
2023/12/04 02:52:26;;;;;;;11.37;8.13;;;;;;;-1.93;83.50;100818.63;5114854;27;20256;-68
2023/12/04 02:54:54;;;;;;;11.57;8.17;;;;;;;-1.91;83.35;100812.03;5116576;27;20203;-67
2023/12/04 02:57:23;;;;;;;13.50;8.37;;;;;;;-1.95;82.63;100820.25;5114936;27;20247;-64
2023/12/04 02:59:51;;;;;;;14.83;8.80;;;;;;;-1.99;83.02;100820.84;5113082;27;20216;-67
2023/12/04 03:02:20;;;;;;;12.03;8.40;;;;;;;-1.95;83.08;100827.81;5118186;27;20640;-66
2023/12/04 03:04:47;;;;;;;12.20;7.73;;;;;;;-1.92;82.91;100825.41;5100786;27;20618;-66
2023/12/04 03:07:15;;;;;;;11.17;7.83;;;;;;;-1.91;82.84;100828.81;5107491;28;20200;-71
2023/12/04 03:09:43;;;;;;;13.00;7.67;;;;;;;-1.92;82.67;100832.13;5111978;28;20703;-67
2023/12/04 03:12:16;;;;;;;12.23;7.70;;;;;;;-1.90;82.84;100833.94;5114108;27;20199;-68
2023/12/04 03:14:46;;;;;;;12.37;8.23;;;;;;;-1.86;82.76;100837.50;5110695;28;20265;-65
2023/12/04 03:17:13;;;;;;;14.00;8.37;;;;;;;-1.86;83.16;100845.09;5111768;27;20657;-67
2023/12/04 03:19:41;;;;;;;12.70;8.67;;;;;;;-1.90;82.78;100825.50;5118103;27;20246;-66
2023/12/04 03:22:09;;;;;;;13.00;8.67;;;;;;;-1.90;83.08;100835.63;5107407;27;20196;-67
2023/12/04 03:24:37;;;;;;;13.10;8.40;;;;;;;-1.91;83.45;100842.31;5106219;27;20664;-66
2023/12/04 03:27:05;;;;;;;15.57;9.33;;;;;;;-1.93;83.21;100830.41;5110530;28;20576;-66
2023/12/04 03:29:33;;;;;;;15.70;9.77;;;;;;;-1.96;83.65;100847.13;5099808;28;20651;-66
2023/12/04 03:32:02;;;;;;;14.90;9.40;;;;;;;-2.01;83.94;100843.50;5114009;28;20561;-66
2023/12/04 03:34:30;;;;;;;17.13;9.43;;;;;;;-2.00;84.08;100847.75;5114977;28;20286;-65
2023/12/04 03:36:58;;;;;;;18.57;10.47;;;;;;;-1.97;84.49;100852.97;5114992;28;20204;-66
2023/12/04 03:39:26;;;;;;;15.30;10.07;;;;;;;-1.93;84.54;100863.22;5109040;28;20204;-66
2023/12/04 03:41:54;;;;;;;15.27;9.53;;;;;;;-1.97;84.17;100858.03;5106402;28;20196;-66
2023/12/04 03:44:23;;;;;;;14.67;9.47;;;;;;;-1.95;84.05;100864.03;5118422;28;20562;-65
2023/12/04 03:46:51;;;;;;;16.70;9.97;;;;;;;-1.95;84.04;100856.47;5109745;28;20239;-66
2023/12/04 03:49:20;;;;;;;17.83;10.63;;;;;;;-1.98;83.94;100865.53;5108332;28;20256;-65
2023/12/04 03:51:49;;;;;;;14.10;9.73;;;;;;;-2.02;83.47;100869.56;5115667;28;20287;-66
2023/12/04 03:54:16;;;;;;;14.73;9.33;;;;;;;-2.06;83.91;100866.75;5112695;28;20647;-66
2023/12/04 03:56:44;;;;;;;15.40;10.03;;;;;;;-2.07;84.09;100859.97;5114042;28;20245;-66
2023/12/04 03:59:12;;;;;;;14.40;8.83;;;;;;;-2.05;84.25;100871.03;5121487;28;20565;-65
2023/12/04 04:01:40;;;;;;;16.13;9.43;;;;;;;-2.05;83.66;100864.34;5107632;28;20299;-67
2023/12/04 04:04:08;;;;;;;15.70;9.70;;;;;;;-2.04;83.55;100865.19;5111579;28;20711;-66
2023/12/04 04:06:38;;;;;;;15.67;10.00;;;;;;;-2.06;83.36;100862.59;5113993;27;20234;-66
2023/12/04 04:09:06;;;;;;;17.37;10.50;;;;;;;-2.10;83.27;100870.81;5116763;27;20191;-66
2023/12/04 04:11:34;;;;;;;15.50;9.77;;;;;;;-2.12;83.64;100872.38;5120799;27;20199;-67
2023/12/04 04:14:02;;;;;;;18.13;9.90;;;;;;;-2.10;83.67;100860.72;5114561;27;20219;-66
2023/12/04 04:16:29;;;;;;;15.20;10.13;;;;;;;-2.12;83.71;100874.03;5124714;27;20674;-65
2023/12/04 04:18:57;;;;;;;15.70;9.83;;;;;;;-2.12;83.36;100867.31;5113924;27;20281;-69
2023/12/04 04:21:25;;;;;;;14.23;9.67;;;;;;;-2.10;83.32;100873.34;5106384;27;20246;-66
2023/12/04 04:23:55;;;;;;;17.50;10.53;;;;;;;-2.14;83.14;100863.84;5109436;28;20354;-66
2023/12/04 04:26:22;;;;;;;17.43;10.33;;;;;;;-2.13;83.49;100868.13;5113134;27;20232;-66
2023/12/04 04:28:50;;;;;;;17.00;11.07;;;;;;;-2.19;82.87;100870.31;5113781;27;20546;-67
2023/12/04 04:31:18;;;;;;;17.17;10.90;;;;;;;-2.19;83.22;100872.84;5124851;27;20568;-65
2023/12/04 04:33:46;;;;;;;15.67;10.10;;;;;;;-2.12;83.47;100871.50;5115822;27;20208;-66
2023/12/04 04:36:14;;;;;;;17.67;11.17;;;;;;;-2.07;83.03;100876.00;5108166;27;20210;-66
2023/12/04 04:38:42;;;;;;;17.07;11.33;;;;;;;-2.15;82.37;100872.22;5111784;27;20231;-65
2023/12/04 04:41:15;;;;;;;17.80;11.07;;;;;;;-2.14;82.64;100878.97;5114408;27;20618;-66
2023/12/04 04:43:43;;;;;;;17.53;10.83;;;;;;;-2.15;82.07;100884.81;5107534;28;20655;-65
2023/12/04 04:46:11;;;;;;;17.37;10.63;;;;;;;-2.16;82.56;100888.16;5112738;27;20975;-67
2023/12/04 04:48:40;;;;;;;18.13;11.67;;;;;;;-2.19;82.20;100881.28;5118590;27;20287;-68
2023/12/04 04:51:08;;;;;;;17.37;10.77;;;;;;;-2.15;82.31;100884.81;5126583;27;20203;-66
2023/12/04 04:53:36;;;;;;;19.90;12.57;;;;;;;-2.15;82.28;100881.44;5100414;28;20200;-66
2023/12/04 04:56:05;;;;;;;15.27;10.60;;;;;;;-2.14;82.48;100884.03;5112355;27;20196;-65
2023/12/04 04:58:35;;;;;;;18.50;11.67;;;;;;;-2.20;82.07;100883.72;5118712;27;20200;-67
2023/12/04 05:01:03;;;;;;;20.70;11.03;;;;;;;-2.17;82.06;100883.91;5120245;27;20200;-65
2023/12/04 05:03:30;;;;;;;15.50;10.17;;;;;;;-2.22;82.21;100880.25;5098993;27;20234;-67
2023/12/04 05:05:59;;;;;;;15.67;10.10;;;;;;;-2.22;82.32;100876.06;5111482;27;20286;-71
2023/12/04 05:08:26;;;;;;;16.63;10.47;;;;;;;-2.19;82.28;100887.97;5119484;27;20194;-68
2023/12/04 05:10:54;;;;;;;16.87;10.30;;;;;;;-2.22;82.32;100880.25;5111874;28;20211;-70
2023/12/04 05:13:22;;;;;;;16.60;10.90;;;;;;;-2.24;82.20;100891.94;5102538;27;20246;-67
2023/12/04 05:15:52;;;;;;;17.73;11.53;;;;;;;-2.25;82.60;100900.25;5112209;27;20303;-69
2023/12/04 05:18:20;;;;;;;20.93;11.83;;;;;;;-2.30;82.47;100899.16;5125191;27;20209;-67
2023/12/04 05:20:47;;;;;;;16.17;10.13;;;;;;;-2.29;82.89;100903.41;5098877;27;20217;-67
2023/12/04 05:23:15;;;;;;;17.93;10.87;;;;;;;-2.24;83.17;100904.56;5108325;27;20215;-69
2023/12/04 05:25:43;;;;;;;21.47;12.43;;;;;;;-2.24;82.56;100907.94;5111992;28;20204;-73
2023/12/04 05:28:17;;;;;;;17.83;11.30;;;;;;;-2.26;82.26;100904.44;5117790;27;20260;-69
2023/12/04 05:30:45;;;;;;;17.43;10.93;;;;;;;-2.23;82.53;100893.66;5112630;27;20644;-68
2023/12/04 05:33:14;;;;;;;21.30;12.50;;;;;;;-2.25;82.55;100900.25;5108055;27;20204;-71
2023/12/04 05:35:42;;;;;;;17.43;11.30;;;;;;;-2.28;82.67;100908.56;5117294;27;20212;-68
2023/12/04 05:38:10;;;;;;;20.20;12.47;;;;;;;-2.31;82.66;100900.81;5119651;27;20256;-68
2023/12/04 05:40:37;;;;;;;18.73;11.60;;;;;;;-2.25;82.88;100905.31;5109241;27;20303;-69
2023/12/04 05:43:05;;;;;;;20.13;12.97;;;;;;;-2.25;82.55;100907.84;5110940;27;20254;-67
2023/12/04 05:45:33;;;;;;;16.57;11.67;;;;;;;-2.26;82.48;100896.00;5111350;27;20651;-69
2023/12/04 05:48:01;;;;;;;18.10;11.07;;;;;;;-2.26;82.81;100914.53;5116849;27;20287;-69
2023/12/04 05:50:31;;;;;;;17.60;11.03;;;;;;;-2.37;82.86;100907.19;5106494;28;20257;-68
2023/12/04 05:52:59;;;;;;;17.57;11.53;;;;;;;-2.41;83.21;100911.19;5109676;28;20222;-67
2023/12/04 05:55:27;;;;;;;18.37;12.87;;;;;;;-2.43;82.83;100905.19;5114846;28;20205;-68
2023/12/04 05:57:54;;;;;;;18.83;11.33;;;;;;;-2.39;83.70;100919.75;5120672;27;20753;-68
2023/12/04 06:00:24;;;;;;;19.20;12.00;;;;;;;-2.41;83.34;100918.78;5107926;27;20315;-65
2023/12/04 06:02:55;;;;;;;18.67;11.40;;;;;;;-2.39;83.67;100914.69;5111049;27;20196;-66
2023/12/04 06:05:24;;;;;;;19.67;12.23;;;;;;;-2.38;83.55;100918.94;5125723;27;20203;-69
2023/12/04 06:07:53;;;;;;;20.17;11.73;;;;;;;-2.34;83.41;100919.97;5122388;27;20231;-68
2023/12/04 06:10:21;;;;;;;19.57;12.53;;;;;;;-2.31;83.36;100910.06;5116791;27;20651;-72
2023/12/04 06:12:49;;;;;;;19.33;12.17;;;;;;;-2.32;82.74;100924.34;5110225;27;20254;-68
2023/12/04 06:15:17;;;;;;;18.93;12.23;;;;;;;-2.31;82.96;100922.69;5105255;27;20207;-69
2023/12/04 06:17:45;;;;;;;18.13;11.23;;;;;;;-2.26;83.54;100924.66;5111263;27;20289;-68
2023/12/04 06:20:13;;;;;;;19.80;12.20;;;;;;;-2.20;82.99;100924.13;5112142;28;20223;-61
2023/12/04 06:22:42;;;;;;;19.37;12.60;;;;;;;-2.23;82.51;100923.94;5103245;27;20195;-61
2023/12/04 06:25:12;;;;;;;21.17;13.00;;;;;;;-2.27;82.10;100927.97;5117084;27;20202;-64
2023/12/04 06:27:41;;;;;;;22.20;13.17;;;;;;;-2.26;82.53;100928.81;5120150;27;20217;-60
2023/12/04 06:30:10;;;;;;;18.57;12.03;;;;;;;-2.34;82.35;100923.38;5112218;27;20806;-62
2023/12/04 06:32:38;;;;;;;20.13;11.97;;;;;;;-2.34;82.80;100932.59;5112422;27;20211;-63
2023/12/04 06:35:07;;;;;;;16.07;11.07;;;;;;;-2.32;83.00;100934.44;5115680;27;21097;-63
2023/12/04 06:37:37;;;;;;;22.07;12.43;;;;;;;-2.29;82.79;100928.66;5112032;27;20200;-61
2023/12/04 06:40:08;;;;;;;23.43;12.27;;;;;;;-2.29;82.49;100934.56;5110500;27;20220;-66
2023/12/04 06:42:38;;;;;;;22.20;13.37;;;;;;;-2.24;82.52;100942.41;5111743;27;20621;-62
2023/12/04 06:45:08;;;;;;;19.80;12.17;;;;;;;-2.23;82.48;100942.47;5110392;27;20278;-62
2023/12/04 06:47:37;;;;;;;19.67;12.67;;;;;;;-2.28;82.36;100938.00;5108626;27;20339;-62
2023/12/04 06:50:07;;;;;;;21.87;13.27;;;;;;;-2.30;82.50;100942.06;5118956;27;20207;-63
2023/12/04 06:52:34;;;;;;;20.67;12.77;;;;;;;-2.32;82.02;100939.47;5109701;27;20201;-62
2023/12/04 06:55:03;;;;;;;21.63;13.00;;;;;;;-2.32;82.20;100939.47;5106455;27;20202;-62
2023/12/04 06:57:31;;;;;;;22.60;12.70;;;;;;;-2.28;82.50;100936.34;5113094;27;20208;-62
2023/12/04 07:00:00;;;;;;;23.93;13.47;;;;;;;-2.22;82.54;100940.81;5110249;27;20657;-62
2023/12/04 07:02:28;;;;;;;22.70;12.97;;;;;;;-2.18;82.34;100945.25;5114983;27;20228;-62
2023/12/04 07:04:56;;;;;;;21.27;12.57;;;;;;;-2.15;82.42;100945.41;5118044;27;20310;-62
2023/12/04 07:07:25;;;;;;;20.83;13.57;;;;;;;-2.11;82.15;100933.84;5117627;27;20211;-64
2023/12/04 07:09:52;;;;;;;22.37;13.40;;;;;;;-2.09;81.81;100933.13;5115159;27;20203;-68
2023/12/04 07:12:21;;;;;;;20.73;13.00;;;;;;;-2.13;82.01;100931.25;5115288;27;20665;-63
2023/12/04 07:14:49;;;;;;;21.43;13.47;;;;;;;-2.16;81.75;100931.06;5112794;27;20208;-62
2023/12/04 07:17:19;;;;;;;24.63;14.37;;;;;;;-2.17;81.68;100939.44;5116358;27;20230;-62
2023/12/04 07:19:47;;;;;;;23.80;14.07;;;;;;;-2.18;81.88;100947.78;5109219;27;20236;-69
2023/12/04 07:22:14;;;;;;;22.80;13.70;;;;;;;-2.18;81.88;100947.78;5109811;27;20703;-69
2023/12/04 07:24:42;;;;;;;24.10;14.13;;;;;;;-2.16;81.64;100951.25;5103467;28;20214;-69
2023/12/04 07:27:10;;;;;;;25.73;14.43;;;;;;;-2.11;81.82;100957.41;5110686;28;20246;-68
2023/12/04 07:29:39;;;;;;;27.50;14.37;;;;;;;-2.15;81.91;100957.19;5116470;28;20195;-68
2023/12/04 07:32:08;;;;;;;20.13;13.03;;;;;;;-2.15;81.74;100954.66;5111995;28;20227;-68
2023/12/04 07:34:37;;;;;;;24.90;14.17;;;;;;;-2.19;81.85;100951.09;5111677;28;20207;-69
2023/12/04 07:37:05;;;;;;;28.10;14.77;;;;;;;-2.20;81.83;100949.38;5111115;28;20192;-73
2023/12/04 07:39:33;;;;;;;27.60;15.13;;;;;;;-2.20;81.55;100946.84;5111161;28;20204;-67
2023/12/04 07:42:01;;;;;;;22.77;14.47;;;;;;;-2.17;81.74;100953.69;5104698;27;20279;-68
2023/12/04 07:44:40;;;;;;;24.17;13.40;;;;;;;-2.12;82.25;100962.41;5114700;27;20278;-68
2023/12/04 07:47:08;;;;;;;25.83;14.80;;;;;;;-2.08;81.60;100955.06;5115574;28;20291;-69
2023/12/04 07:49:37;;;;;;;25.30;13.70;;;;;;;-2.03;81.78;100955.31;5102164;27;20211;-68
2023/12/04 07:52:05;;;;;;;23.63;13.50;;;;;;;-1.98;81.72;100967.41;5111299;27;20295;-68
2023/12/04 07:54:34;;;;;;;24.73;14.17;;;;;;;-1.96;81.50;100955.72;5114390;27;20206;-67
2023/12/04 07:57:02;;;;;;;24.10;14.03;;;;;;;-1.90;81.11;100954.31;5118080;27;20192;-68
2023/12/04 07:59:30;;;;;;;23.53;14.70;;;;;;;-1.87;80.86;100957.00;5105930;27;20220;-67
2023/12/04 08:01:58;;;;;;;24.00;14.23;;;;;;;-1.92;80.86;100955.88;5104140;27;20300;-67
2023/12/04 08:04:27;;;;;;;24.50;13.70;;;;;;;-1.88;80.88;100962.81;5115287;27;20203;-63
2023/12/04 08:06:56;;;;;;;23.83;13.87;;;;;;;-1.85;80.90;100970.56;5118520;27;21157;-62
2023/12/04 08:09:24;;;;;;;24.33;13.90;;;;;;;-1.84;80.45;100962.19;5114890;27;20204;-63
2023/12/04 08:11:52;;;;;;;23.77;14.17;;;;;;;-1.83;80.94;100972.41;5117913;27;20203;-62
2023/12/04 08:14:24;;;;;;;21.63;13.27;;;;;;;-1.80;80.94;100966.66;5114999;28;20561;-61
2023/12/04 08:16:52;;;;;;;22.43;13.77;;;;;;;-1.74;80.46;100974.53;5118554;27;20242;-62
2023/12/04 08:19:20;;;;;;;30.60;15.60;;;;;;;-1.71;80.23;100975.56;5100385;27;20333;-62
2023/12/04 08:21:48;;;;;;;21.63;12.93;;;;;;;-1.82;79.90;100975.78;5112419;27;20259;-63
2023/12/04 08:24:18;;;;;;;22.53;13.30;;;;;;;-1.82;80.29;100983.38;5115589;27;20285;-62
2023/12/04 08:26:46;;;;;;;23.30;14.23;;;;;;;-1.81;80.45;100985.09;5110771;28;20709;-62
2023/12/04 08:29:14;;;;;;;25.17;14.10;;;;;;;-1.76;80.65;100984.56;5115982;27;20204;-62
2023/12/04 08:31:42;;;;;;;25.13;14.60;;;;;;;-1.73;80.14;100979.69;5115457;27;20214;-62
2023/12/04 08:34:10;;;;;;;23.53;14.63;;;;;;;-1.71;80.37;100977.22;5102590;27;20200;-65
2023/12/04 08:36:38;;;;;;;22.23;13.63;;;;;;;-1.67;80.02;100973.19;5108825;27;20231;-65
2023/12/04 08:39:13;;;;;;;25.30;14.23;;;;;;;-1.67;79.89;100981.66;5120298;27;20207;-62
2023/12/04 08:41:46;;;;;;;24.03;14.03;;;;;;;-1.68;79.70;100981.56;5114578;27;20224;-63
2023/12/04 08:44:28;;;;;;;25.47;13.83;;;;;;;-1.68;79.86;100987.50;5111555;27;20204;-62
2023/12/04 08:46:57;;;;;;;22.17;13.97;;;;;;;-1.70;79.74;100986.53;5114529;27;20987;-63
2023/12/04 08:49:25;;;;;;;26.60;14.23;;;;;;;-1.68;80.19;100997.59;5103178;27;20661;-63
2023/12/04 08:52:07;;;;;;;22.90;13.20;;;;;;;-1.64;79.96;100996.97;5114016;27;20195;-63
2023/12/04 08:54:35;;;;;;;25.20;14.90;;;;;;;-1.66;79.52;100990.09;5117982;27;20227;-62
2023/12/04 08:57:05;;;;;;;23.37;13.30;;;;;;;-1.60;79.74;100995.47;5110628;28;20200;-62
2023/12/04 08:59:33;;;;;;;24.97;14.67;;;;;;;-1.56;79.39;101003.28;5101105;27;20200;-62
2023/12/04 09:02:03;;;;;;;23.17;13.40;;;;;;;-1.60;79.43;101003.91;5121288;27;20207;-60
2023/12/04 09:04:32;;;;;;;23.27;12.60;;;;;;;-1.61;79.32;101004.72;5109532;27;20207;-68
2023/12/04 09:07:01;;;;;;;23.50;13.63;;;;;;;-1.59;78.76;101003.13;5106782;27;20604;-63
2023/12/04 09:09:49;;;;;;;20.90;12.67;;;;;;;-1.62;78.94;101002.09;5106466;27;20211;-62
2023/12/04 09:12:18;;;;;;;26.73;14.43;;;;;;;-1.62;78.96;101000.47;5117088;27;20207;-69
2023/12/04 09:14:46;;;;;;;23.87;12.17;;;;;;;-1.58;78.90;101004.03;5111800;27;20604;-62
2023/12/04 09:17:14;;;;;;;22.30;13.17;;;;;;;-1.57;78.56;100991.47;5110900;27;20323;-64
2023/12/04 09:19:42;;;;;;;25.40;13.30;;;;;;;-1.56;78.43;100992.31;5121216;27;20619;-62
2023/12/04 09:22:11;;;;;;;22.67;13.07;;;;;;;-1.56;78.26;100993.19;5110160;27;20237;-63
2023/12/04 09:24:46;;;;;;;24.63;13.63;;;;;;;-1.56;78.23;101005.81;5116446;27;20203;-58
2023/12/04 09:27:14;;;;;;;22.80;13.00;;;;;;;-1.55;78.42;100999.97;5109340;27;20223;-61
2023/12/04 09:29:43;;;;;;;21.07;12.70;;;;;;;-1.56;78.21;100995.72;5109211;27;20685;-60
2023/12/04 09:32:11;;;;;;;24.80;13.97;;;;;;;-1.54;78.06;100996.69;5109020;27;20200;-62
2023/12/04 09:34:39;;;;;;;23.43;13.03;;;;;;;-1.57;77.74;101001.56;5109826;27;20249;-64
2023/12/04 09:37:08;;;;;;;21.03;12.80;;;;;;;-1.65;77.54;100995.25;5107043;27;20205;-57
2023/12/04 09:39:39;;;;;;;23.23;12.10;;;;;;;-1.71;77.81;100997.44;5099349;27;20668;-68
2023/12/04 09:42:08;;;;;;;23.70;14.03;;;;;;;-1.73;78.44;100989.78;5120002;27;20645;-68
2023/12/04 09:44:37;;;;;;;19.60;12.87;;;;;;;-1.70;78.96;100992.44;5116609;27;20302;-68
2023/12/04 09:47:10;;;;;;;22.03;13.27;;;;;;;-1.64;78.88;100989.38;5116100;27;20206;-66
2023/12/04 09:49:39;;;;;;;25.00;14.10;;;;;;;-1.52;78.97;100989.16;5110616;27;20640;-68
2023/12/04 09:52:07;;;;;;;24.13;13.70;;;;;;;-1.53;78.13;100985.75;5109468;27;20242;-69
2023/12/04 09:54:36;;;;;;;22.27;13.23;;;;;;;-1.53;78.02;100987.44;5113596;27;20203;-71
2023/12/04 09:57:05;;;;;;;21.97;13.23;;;;;;;-1.51;78.07;100986.72;5104561;27;20208;-72
2023/12/04 09:59:35;;;;;;;21.13;13.17;;;;;;;-1.55;77.52;100986.47;5117778;27;20203;-70
2023/12/04 10:02:04;;;;;;;22.90;13.67;;;;;;;-1.52;78.52;100991.69;5115998;27;20216;-71
2023/12/04 10:04:34;;;;;;;22.00;12.90;;;;;;;-1.48;78.31;100991.91;5102472;27;20203;-66
2023/12/04 10:07:02;;;;;;;26.10;13.77;;;;;;;-1.43;78.04;100988.78;5109550;27;20228;-70
2023/12/04 10:09:30;;;;;;;22.90;13.53;;;;;;;-1.41;77.96;100977.06;5111182;27;20250;-76
2023/12/04 10:11:58;;;;;;;23.27;13.87;;;;;;;-1.43;77.56;100981.22;5109194;27;20299;-70
2023/12/04 10:14:27;;;;;;;24.37;14.00;;;;;;;-1.49;77.58;100980.06;5121285;27;20599;-72
2023/12/04 10:16:55;;;;;;;25.83;13.63;;;;;;;-1.53;77.98;100978.19;5115319;27;20294;-71
2023/12/04 10:19:25;;;;;;;23.07;13.07;;;;;;;-1.51;78.14;100984.19;5112839;27;20589;-68
2023/12/04 10:21:59;;;;;;;23.43;12.97;;;;;;;-1.44;77.89;100971.88;5110063;27;20297;-72
2023/12/04 10:24:29;;;;;;;24.43;14.23;;;;;;;-1.39;77.70;100970.47;5106567;27;20201;-72
2023/12/04 10:26:57;;;;;;;22.57;13.13;;;;;;;-1.29;77.82;100972.63;5111973;27;20204;-71
2023/12/04 10:29:29;;;;;;;23.67;12.37;;;;;;;-1.21;77.36;100968.88;5111673;27;20231;-69
2023/12/04 10:32:00;;;;;;;28.63;14.57;;;;;;;-1.22;76.95;100965.44;5110416;27;20599;-69
2023/12/04 10:34:33;;;;;;;28.43;16.23;;;;;;;-1.18;77.04;100971.53;5110919;27;20226;-67
2023/12/04 10:37:04;;;;;;;23.63;13.30;;;;;;;-1.13;76.74;100966.72;5105415;27;20207;-66
2023/12/04 10:39:34;;;;;;;25.50;13.77;;;;;;;-1.07;77.27;100962.84;5119397;27;20219;-69
2023/12/04 10:42:04;;;;;;;23.53;13.87;;;;;;;-1.02;76.59;100969.00;5108077;27;20220;-65
2023/12/04 10:44:32;;;;;;;22.60;12.73;;;;;;;-0.94;76.49;100968.50;5103673;27;20287;-68
2023/12/04 10:47:02;;;;;;;28.50;14.53;;;;;;;-0.85;76.46;100971.47;5120102;27;20577;-69
2023/12/04 10:49:31;;;;;;;21.03;13.43;;;;;;;-0.82;75.93;100967.44;5112121;28;20312;-63
2023/12/04 10:52:01;;;;;;;20.80;12.47;;;;;;;-0.75;75.14;100961.88;5103255;28;20662;-63
2023/12/04 10:54:30;;;;;;;23.17;13.87;;;;;;;-0.76;74.80;100962.69;5116474;27;20235;-64
2023/12/04 10:57:03;;;;;;;23.90;13.07;;;;;;;-0.75;74.65;100964.41;5107432;27;20296;-65
2023/12/04 10:59:37;;;;;;;22.07;13.57;;;;;;;-0.66;74.87;100963.09;5094653;27;20195;-63
2023/12/04 11:02:08;;;;;;;23.63;12.97;;;;;;;-0.70;74.10;100981.47;5111340;27;20286;-62
2023/12/04 11:04:38;;;;;;;22.87;12.87;;;;;;;-0.74;74.18;100970.34;5111158;27;20196;-60
2023/12/04 11:07:08;;;;;;;20.57;12.40;;;;;;;-0.64;74.72;100976.72;5113745;27;20620;-64
2023/12/04 11:09:38;;;;;;;21.43;12.70;;;;;;;-0.53;74.02;100975.56;5102671;27;20203;-61
2023/12/04 11:12:12;;;;;;;20.97;11.87;;;;;;;-0.60;73.27;100971.88;5102969;27;20200;-62
2023/12/04 11:14:45;;;;;;;20.63;11.97;;;;;;;-0.57;73.76;100969.50;5113503;27;20225;-64
2023/12/04 11:17:16;;;;;;;21.23;12.57;;;;;;;-0.62;72.97;100968.41;5099264;28;20287;-63